createdAt,value
2018-09-05T00:00:37.926Z,87.55
2018-09-05T00:01:37.803Z,87.46
2018-09-05T00:02:37.674Z,86.88
2018-09-05T00:03:37.549Z,86.41
2018-09-05T00:04:37.425Z,86.32
2018-09-05T00:05:37.300Z,86.03
2018-09-05T00:06:37.180Z,85.84
2018-09-05T00:07:37.051Z,85.84
2018-09-05T00:08:36.925Z,85.64
2018-09-05T00:09:36.799Z,85.74
2018-09-05T00:10:36.676Z,85.64
2018-09-05T00:11:36.554Z,84.88
2018-09-05T00:12:36.424Z,85.27
2018-09-05T00:13:36.302Z,87.55
2018-09-05T00:14:36.180Z,86.79
2018-09-05T00:15:36.052Z,87.46
2018-09-05T00:16:35.927Z,87.93
2018-09-05T00:17:35.800Z,86.69
2018-09-05T00:18:35.672Z,86.32
2018-09-05T00:19:35.547Z,86.79
2018-09-05T00:20:35.424Z,87.27
2018-09-05T00:21:35.297Z,87.46
2018-09-05T00:22:35.172Z,87.07
2018-09-05T00:23:35.047Z,87.07
2018-09-05T00:24:34.923Z,85.36
2018-09-05T00:25:34.797Z,85.84
2018-09-05T00:26:34.675Z,85.36
2018-09-05T00:27:34.553Z,85.27
2018-09-05T00:28:34.420Z,85.17
2018-09-05T00:29:34.295Z,85.27
2018-09-05T00:30:34.171Z,84.88
2018-09-05T00:31:34.048Z,84.98
2018-09-05T00:32:33.920Z,84.98
2018-09-05T00:33:33.796Z,84.60
2018-09-05T00:34:33.669Z,85.64
2018-09-05T00:35:33.543Z,85.55
2018-09-05T00:36:33.420Z,84.98
2018-09-05T00:37:33.294Z,84.88
2018-09-05T00:38:33.168Z,84.60
2018-09-05T00:39:33.042Z,83.65
2018-09-05T00:40:32.917Z,83.84
2018-09-05T00:41:32.794Z,84.03
2018-09-05T00:42:32.666Z,83.45
2018-09-05T00:43:32.542Z,83.65
2018-09-05T00:44:32.417Z,84.98
2018-09-05T00:45:32.293Z,84.88
2018-09-05T00:46:32.165Z,84.03
2018-09-05T00:47:32.040Z,83.36
2018-09-05T00:48:31.914Z,83.65
2018-09-05T00:49:31.793Z,84.31
2018-09-05T00:50:31.663Z,84.98
2018-09-05T00:51:31.539Z,85.74
2018-09-05T00:52:31.413Z,85.27
2018-09-05T00:53:31.288Z,83.74
2018-09-05T00:54:31.162Z,83.36
2018-09-05T00:55:31.042Z,83.74
2018-09-05T00:56:30.913Z,84.69
2018-09-05T00:57:30.793Z,85.27
2018-09-05T00:58:30.663Z,86.03
2018-09-05T00:59:30.535Z,85.74
2018-09-05T01:00:30.419Z,85.46
2018-09-05T01:01:30.287Z,84.41
2018-09-05T01:02:30.159Z,85.08
2018-09-05T01:03:30.038Z,84.69
2018-09-05T01:04:29.942Z,84.50
2018-09-05T01:05:29.787Z,84.03
2018-09-05T01:06:29.665Z,84.03
2018-09-05T01:07:29.539Z,82.98
2018-09-05T01:08:29.409Z,83.70
2018-09-05T01:09:29.284Z,84.60
2018-09-05T01:10:29.159Z,83.41
2018-09-05T01:11:29.032Z,83.61
2018-09-05T01:12:28.907Z,83.22
2018-09-05T01:13:28.788Z,82.75
2018-09-05T01:14:28.657Z,81.32
2018-09-05T01:15:28.531Z,82.18
2018-09-05T01:16:30.036Z,83.80
2018-09-05T01:17:28.281Z,84.94
2018-09-05T01:18:28.156Z,85.41
2018-09-05T01:19:28.033Z,85.60
2018-09-05T01:20:27.910Z,84.94
2018-09-05T01:21:27.779Z,83.32
2018-09-05T01:22:27.654Z,81.79
2018-09-05T01:23:27.529Z,81.32
2018-09-05T01:24:27.409Z,81.41
2018-09-05T01:25:27.278Z,81.51
2018-09-05T01:26:27.151Z,81.32
2018-09-05T01:27:27.030Z,80.75
2018-09-05T01:28:26.904Z,81.23
2018-09-05T01:29:26.777Z,81.41
2018-09-05T01:30:26.651Z,80.18
2018-09-05T01:31:26.525Z,80.65
2018-09-05T01:32:26.404Z,79.99
2018-09-05T01:33:26.276Z,80.46
2018-09-05T01:34:26.150Z,80.65
2018-09-05T01:35:26.023Z,80.18
2018-09-05T01:36:25.898Z,80.94
2018-09-05T01:37:25.774Z,80.27
2018-09-05T01:38:25.655Z,81.13
2018-09-05T01:39:25.522Z,81.03
2018-09-05T01:40:25.397Z,81.13
2018-09-05T01:41:25.272Z,81.13
2018-09-05T01:42:25.148Z,79.41
2018-09-05T01:43:25.017Z,79.89
2018-09-05T01:44:24.895Z,79.41
2018-09-05T01:45:24.772Z,78.65
2018-09-05T01:46:24.645Z,78.56
2018-09-05T01:47:24.518Z,78.65
2018-09-05T01:48:24.392Z,79.13
2018-09-05T01:49:24.269Z,79.03
2018-09-05T01:50:24.140Z,79.13
2018-09-05T01:51:24.016Z,79.32
2018-09-05T01:52:23.890Z,79.41
2018-09-05T01:53:23.764Z,80.55
2018-09-05T01:54:23.638Z,80.27
2018-09-05T01:55:23.516Z,79.70
2018-09-05T01:56:23.386Z,79.13
2018-09-05T01:57:23.268Z,78.75
2018-09-05T01:58:23.136Z,78.17
2018-09-05T01:59:23.025Z,78.37
2018-09-05T02:00:22.887Z,79.51
2018-09-05T02:01:22.760Z,79.60
2018-09-05T02:02:22.633Z,79.80
2018-09-05T02:03:22.509Z,79.89
2018-09-05T02:04:22.383Z,79.80
2018-09-05T02:05:22.274Z,79.41
2018-09-05T02:06:22.131Z,80.08
2018-09-05T02:07:22.005Z,79.70
2018-09-05T02:08:21.905Z,79.51
2018-09-05T02:09:21.753Z,79.22
2018-09-05T02:10:21.630Z,78.94
2018-09-05T02:11:21.504Z,79.03
2018-09-05T02:12:21.377Z,77.80
2018-09-05T02:13:21.253Z,78.08
2018-09-05T02:14:21.126Z,77.13
2018-09-05T02:15:21.001Z,77.42
2018-09-05T02:16:20.880Z,77.70
2018-09-05T02:17:20.749Z,78.37
2018-09-05T02:18:20.624Z,77.13
2018-09-05T02:19:20.499Z,76.56
2018-09-05T02:20:20.372Z,76.65
2018-09-05T02:21:20.248Z,76.46
2018-09-05T02:22:20.120Z,76.65
2018-09-05T02:23:19.996Z,76.37
2018-09-05T02:24:19.869Z,77.13
2018-09-05T02:25:19.745Z,77.51
2018-09-05T02:26:19.617Z,77.32
2018-09-05T02:27:19.497Z,77.32
2018-09-05T02:28:19.368Z,77.32
2018-09-05T02:29:19.248Z,78.27
2018-09-05T02:30:19.116Z,78.65
2018-09-05T02:31:18.989Z,76.84
2018-09-05T02:32:18.866Z,77.61
2018-09-05T02:33:18.747Z,77.80
2018-09-05T02:34:18.618Z,78.08
2018-09-05T02:35:18.489Z,77.89
2018-09-05T02:36:18.362Z,78.08
2018-09-05T02:37:18.236Z,77.98
2018-09-05T02:38:18.108Z,78.46
2018-09-05T02:39:17.987Z,77.70
2018-09-05T02:40:17.897Z,77.89
2018-09-05T02:41:17.733Z,77.89
2018-09-05T02:42:17.608Z,77.98
2018-09-05T02:43:17.483Z,78.46
2018-09-05T02:44:17.358Z,78.08
2018-09-05T02:45:17.230Z,78.17
2018-09-05T02:46:17.104Z,77.98
2018-09-05T02:47:16.979Z,78.08
2018-09-05T02:48:16.853Z,78.37
2018-09-05T02:49:16.728Z,78.56
2018-09-05T02:50:16.601Z,78.27
2018-09-05T02:51:16.475Z,77.03
2018-09-05T02:52:16.351Z,76.94
2018-09-05T02:53:16.224Z,75.32
2018-09-05T02:54:16.104Z,75.51
2018-09-05T02:55:15.973Z,75.60
2018-09-05T02:56:15.848Z,75.99
2018-09-05T02:57:15.726Z,75.99
2018-09-05T02:58:15.596Z,75.99
2018-09-05T02:59:15.472Z,76.18
2018-09-05T03:00:15.344Z,75.99
2018-09-05T03:01:15.221Z,75.23
2018-09-05T03:02:15.098Z,74.94
2018-09-05T03:03:14.968Z,74.84
2018-09-05T03:04:14.843Z,74.46
2018-09-05T03:05:14.715Z,74.94
2018-09-05T03:06:14.589Z,74.75
2018-09-05T03:07:14.464Z,73.89
2018-09-05T03:08:14.338Z,74.18
2018-09-05T03:09:14.262Z,74.18
2018-09-05T03:10:14.088Z,74.37
2018-09-05T03:11:13.959Z,74.46
2018-09-05T03:12:13.836Z,74.84
2018-09-05T03:13:13.709Z,75.32
2018-09-05T03:14:13.628Z,75.51
2018-09-05T03:15:13.458Z,75.89
2018-09-05T03:16:13.333Z,75.13
2018-09-05T03:17:13.208Z,74.24
2018-09-05T03:18:13.087Z,73.99
2018-09-05T03:19:12.956Z,73.51
2018-09-05T03:20:12.829Z,73.57
2018-09-05T03:21:12.706Z,73.80
2018-09-05T03:22:12.578Z,73.51
2018-09-05T03:23:12.451Z,73.80
2018-09-05T03:24:12.325Z,73.99
2018-09-05T03:25:12.202Z,74.46
2018-09-05T03:26:12.074Z,74.37
2018-09-05T03:27:11.951Z,74.75
2018-09-05T03:28:11.825Z,75.70
2018-09-05T03:29:11.702Z,76.27
2018-09-05T03:30:11.572Z,75.51
2018-09-05T03:31:11.448Z,76.37
2018-09-05T03:32:11.333Z,76.65
2018-09-05T03:33:11.233Z,75.85
2018-09-05T03:34:11.072Z,75.47
2018-09-05T03:35:10.946Z,74.27
2018-09-05T03:36:10.820Z,73.76
2018-09-05T03:37:10.694Z,73.95
2018-09-05T03:38:10.569Z,76.52
2018-09-05T03:39:10.442Z,77.85
2018-09-05T03:40:10.318Z,78.08
2018-09-05T03:41:10.191Z,77.22
2018-09-05T03:42:10.064Z,75.85
2018-09-05T03:43:09.939Z,74.14
2018-09-05T03:44:09.813Z,73.99
2018-09-05T03:45:09.688Z,73.10
2018-09-05T03:46:09.579Z,71.47
2018-09-05T03:47:09.440Z,71.28
2018-09-05T03:48:09.309Z,71.28
2018-09-05T03:49:09.185Z,71.19
2018-09-05T03:50:09.057Z,72.62
2018-09-05T03:51:08.932Z,73.28
2018-09-05T03:52:08.811Z,72.81
2018-09-05T03:53:08.680Z,73.66
2018-09-05T03:54:08.555Z,73.47
2018-09-05T03:55:08.428Z,73.47
2018-09-05T03:56:08.306Z,73.85
2018-09-05T03:57:08.182Z,72.62
2018-09-05T03:58:08.056Z,72.65
2018-09-05T03:59:07.925Z,73.19
2018-09-05T04:00:07.803Z,73.66
2018-09-05T04:01:07.674Z,73.66
2018-09-05T04:02:07.557Z,73.57
2018-09-05T04:03:07.420Z,74.14
2018-09-05T04:04:07.294Z,73.95
2018-09-05T04:05:07.319Z,73.76
2018-09-05T04:06:07.048Z,73.38
2018-09-05T04:07:06.918Z,72.62
2018-09-05T04:08:06.794Z,71.95
2018-09-05T04:09:06.675Z,71.86
2018-09-05T04:10:06.541Z,71.57
2018-09-05T04:11:06.415Z,71.28
2018-09-05T04:12:06.377Z,71.00
2018-09-05T04:13:06.168Z,70.52
2018-09-05T04:14:06.035Z,70.24
2018-09-05T04:15:05.910Z,70.90
2018-09-05T04:16:05.785Z,72.24
2018-09-05T04:17:05.659Z,72.71
2018-09-05T04:18:05.533Z,72.81
2018-09-05T04:19:05.408Z,73.19
2018-09-05T04:20:05.282Z,73.95
2018-09-05T04:21:05.163Z,75.19
2018-09-05T04:22:05.058Z,75.38
2018-09-05T04:23:04.903Z,75.38
2018-09-05T04:24:04.776Z,75.38
2018-09-05T04:25:04.651Z,73.76
2018-09-05T04:26:04.534Z,73.47
2018-09-05T04:27:04.400Z,73.19
2018-09-05T04:28:04.280Z,73.28
2018-09-05T04:29:04.148Z,74.04
2018-09-05T04:30:04.027Z,72.71
2018-09-05T04:31:03.895Z,73.57
2018-09-05T04:32:03.769Z,74.43
2018-09-05T04:33:03.647Z,74.52
2018-09-05T04:34:03.519Z,74.62
2018-09-05T04:35:03.392Z,75.28
2018-09-05T04:36:03.279Z,74.52
2018-09-05T04:37:03.146Z,73.85
2018-09-05T04:38:03.019Z,74.18
2018-09-05T04:39:02.889Z,74.14
2018-09-05T04:40:02.765Z,73.10
2018-09-05T04:41:02.643Z,73.89
2018-09-05T04:42:02.512Z,74.04
2018-09-05T04:43:02.389Z,75.09
2018-09-05T04:44:02.260Z,74.04
2018-09-05T04:45:02.163Z,72.33
2018-09-05T04:46:02.008Z,70.72
2018-09-05T04:47:01.882Z,69.76
2018-09-05T04:48:01.759Z,70.81
2018-09-05T04:49:01.632Z,69.76
2018-09-05T04:50:01.504Z,70.33
2018-09-05T04:51:01.379Z,70.52
2018-09-05T04:52:01.254Z,72.14
2018-09-05T04:53:01.132Z,71.19
2018-09-05T04:54:01.001Z,71.57
2018-09-05T04:55:00.878Z,72.14
2018-09-05T04:56:00.752Z,71.22
2018-09-05T04:57:00.624Z,70.94
2018-09-05T04:58:00.499Z,70.90
2018-09-05T04:59:00.374Z,70.56
2018-09-05T05:00:00.248Z,72.05
2018-09-05T05:01:00.121Z,73.00
2018-09-05T05:01:59.993Z,74.08
2018-09-05T05:02:59.868Z,75.51
2018-09-05T05:03:59.743Z,75.89
2018-09-05T05:04:59.618Z,76.18
2018-09-05T05:05:59.491Z,77.70
2018-09-05T05:06:59.364Z,78.27
2018-09-05T05:07:59.239Z,79.13
2018-09-05T05:08:59.115Z,78.46
2018-09-05T05:09:58.988Z,77.70
2018-09-05T05:10:58.860Z,76.75
2018-09-05T05:11:58.737Z,78.37
2018-09-05T05:12:58.614Z,79.32
2018-09-05T05:13:58.487Z,78.85
2018-09-05T05:14:58.357Z,78.56
2018-09-05T05:15:58.233Z,77.32
2018-09-05T05:16:58.110Z,77.13
2018-09-05T05:17:57.984Z,77.32
2018-09-05T05:18:57.883Z,77.51
2018-09-05T05:19:57.730Z,78.46
2018-09-05T05:20:57.604Z,79.38
2018-09-05T05:21:57.497Z,78.99
2018-09-05T05:22:57.353Z,78.65
2018-09-05T05:23:57.230Z,79.99
2018-09-05T05:24:57.100Z,81.79
2018-09-05T05:25:56.975Z,80.84
2018-09-05T05:26:56.848Z,79.99
2018-09-05T05:27:56.724Z,80.08
2018-09-05T05:28:56.599Z,79.51
2018-09-05T05:29:56.473Z,79.51
2018-09-05T05:30:56.345Z,79.51
2018-09-05T05:31:56.220Z,79.32
2018-09-05T05:32:56.131Z,79.51
2018-09-05T05:33:55.975Z,80.08
2018-09-05T05:34:55.845Z,79.41
2018-09-05T05:35:55.879Z,80.08
2018-09-05T05:36:55.593Z,81.03
2018-09-05T05:37:55.465Z,82.84
2018-09-05T05:38:55.341Z,84.46
2018-09-05T05:39:55.218Z,83.51
2018-09-05T05:40:55.099Z,82.46
2018-09-05T05:41:54.962Z,82.79
2018-09-05T05:42:54.868Z,82.03
2018-09-05T05:43:54.711Z,81.55
2018-09-05T05:44:54.586Z,84.60
2018-09-05T05:45:54.459Z,93.22
2018-09-05T05:46:54.338Z,99.99
2018-09-05T05:47:54.210Z,99.99
2018-09-05T05:48:54.083Z,99.99
2018-09-05T05:49:53.958Z,99.89
2018-09-05T05:50:53.834Z,99.99
2018-09-05T05:51:53.707Z,99.99
2018-09-05T05:52:53.582Z,99.99
2018-09-05T05:53:53.463Z,99.99
2018-09-05T05:54:53.331Z,99.99
2018-09-05T05:55:53.243Z,99.99
2018-09-05T05:56:53.085Z,99.99
2018-09-05T05:57:52.973Z,99.99
2018-09-05T05:58:52.856Z,99.99
2018-09-05T05:59:52.708Z,99.99
2018-09-05T06:00:52.651Z,99.99
2018-09-05T06:01:52.460Z,99.99
2018-09-05T06:02:52.334Z,99.99
2018-09-05T06:03:52.210Z,99.99
2018-09-05T06:04:52.088Z,99.99
2018-09-05T06:05:52.028Z,99.99
2018-09-05T06:06:51.892Z,99.99
2018-09-05T06:07:51.714Z,99.99
2018-09-05T06:08:51.590Z,99.99
2018-09-05T06:09:51.464Z,99.99
2018-09-05T06:10:51.342Z,99.99
2018-09-05T06:11:51.222Z,99.99
2018-09-05T06:12:51.095Z,99.99
2018-09-05T06:13:50.967Z,99.99
2018-09-05T06:14:50.883Z,99.99
2018-09-05T06:15:50.727Z,99.99
2018-09-05T06:16:50.655Z,99.99
2018-09-05T06:17:50.478Z,99.99
2018-09-05T06:18:50.350Z,99.99
2018-09-05T06:19:50.230Z,99.99
2018-09-05T06:20:50.232Z,99.99
2018-09-05T06:21:49.979Z,99.99
2018-09-05T06:22:49.877Z,99.99
2018-09-05T06:23:49.775Z,99.99
2018-09-05T06:24:49.608Z,99.99
2018-09-05T06:25:49.483Z,99.99
2018-09-05T06:26:49.359Z,99.99
2018-09-05T06:27:49.380Z,99.99
2018-09-05T06:28:49.114Z,99.99
2018-09-05T06:29:48.991Z,99.99
2018-09-05T06:30:48.972Z,99.99
2018-09-05T06:31:48.749Z,99.99
2018-09-05T06:32:48.621Z,99.99
2018-09-05T06:33:48.494Z,99.99
2018-09-05T06:34:48.372Z,99.99
2018-09-05T06:35:48.248Z,99.99
2018-09-05T06:36:48.125Z,99.99
2018-09-05T06:37:48.001Z,99.99
2018-09-05T06:38:47.879Z,99.99
2018-09-05T06:39:47.756Z,99.99
2018-09-05T06:40:47.631Z,99.99
2018-09-05T06:41:47.508Z,99.99
2018-09-05T06:42:47.387Z,99.99
2018-09-05T06:43:47.262Z,99.99
2018-09-05T06:44:47.143Z,99.99
2018-09-05T06:45:47.014Z,99.99
2018-09-05T06:46:46.891Z,99.99
2018-09-05T06:47:46.790Z,99.99
2018-09-05T06:48:46.645Z,99.99
2018-09-05T06:49:46.523Z,99.99
2018-09-05T06:50:46.399Z,99.99
2018-09-05T06:51:46.275Z,99.99
2018-09-05T06:52:46.155Z,99.99
2018-09-05T06:53:53.186Z,99.99
2018-09-05T06:55:38.744Z,99.99
2018-09-05T06:56:38.577Z,99.99
2018-09-05T06:58:31.250Z,99.99
2018-09-05T06:59:31.123Z,99.99
2018-09-05T07:01:51.839Z,99.99
2018-09-05T07:02:52.457Z,99.99
2018-09-05T07:04:45.383Z,99.99
2018-09-05T07:05:44.207Z,99.99
2018-09-05T07:07:36.874Z,99.99
2018-09-05T07:08:36.742Z,99.99
2018-09-05T07:10:29.436Z,99.99
2018-09-05T07:11:29.277Z,99.99
2018-09-05T07:13:21.972Z,99.99
2018-09-05T07:14:21.817Z,99.99
2018-09-05T07:16:14.482Z,99.99
2018-09-05T07:17:14.348Z,99.99
2018-09-05T07:19:07.050Z,99.99
2018-09-05T07:20:06.882Z,99.99
2018-09-05T07:21:59.652Z,99.99
2018-09-05T07:22:59.470Z,99.99
2018-09-05T07:24:52.248Z,99.99
2018-09-05T07:25:51.958Z,99.99
2018-09-05T07:27:44.630Z,99.24
2018-09-05T07:28:44.497Z,99.99
2018-09-05T07:30:45.215Z,99.99
2018-09-05T07:31:37.897Z,97.95
2018-09-05T07:33:45.654Z,99.00
2018-09-05T07:34:45.520Z,99.99
2018-09-05T07:36:38.264Z,97.33
2018-09-05T07:37:38.061Z,97.52
2018-09-05T07:39:30.727Z,96.75
2018-09-05T07:40:30.599Z,96.18
2018-09-05T07:42:23.315Z,94.26
2018-09-05T07:43:23.153Z,93.88
2018-09-05T07:45:15.853Z,98.00
2018-09-05T07:46:15.695Z,93.59
2018-09-05T07:48:08.389Z,91.10
2018-09-05T07:49:08.535Z,92.58
2018-09-05T07:51:01.014Z,89.57
2018-09-05T07:52:00.790Z,89.57
2018-09-05T07:53:53.617Z,88.32
2018-09-05T07:54:53.311Z,90.76
2018-09-05T07:56:46.196Z,92.05
2018-09-05T07:57:46.007Z,88.70
2018-09-05T07:59:38.523Z,91.48
2018-09-05T08:00:38.393Z,88.74
2018-09-05T08:02:31.101Z,90.56
2018-09-05T08:03:30.937Z,91.52
2018-09-05T08:05:23.643Z,86.10
2018-09-05T08:06:23.516Z,83.89
2018-09-05T08:08:16.217Z,88.40
2018-09-05T08:09:16.058Z,87.63
2018-09-05T08:11:09.073Z,85.62
2018-09-05T08:12:08.773Z,88.88
2018-09-05T08:14:01.319Z,86.48
2018-09-05T08:15:01.155Z,85.00
2018-09-05T08:17:07.975Z,86.38
2018-09-05T08:18:07.625Z,83.03
2018-09-05T08:19:59.134Z,77.65
2018-09-05T08:20:58.975Z,82.68
2018-09-05T08:22:52.496Z,80.28
2018-09-05T08:23:52.369Z,82.87
2018-09-05T08:25:45.076Z,80.96
2018-09-05T08:26:44.918Z,79.47
2018-09-05T08:28:53.524Z,79.19
2018-09-05T08:29:53.376Z,83.51
2018-09-05T08:31:46.045Z,82.20
2018-09-05T08:32:45.886Z,79.36
2018-09-05T08:34:38.598Z,76.81
2018-09-05T08:35:38.662Z,75.81
2018-09-05T08:37:31.348Z,75.90
2018-09-05T08:38:31.118Z,77.48
2018-09-05T08:40:38.734Z,75.75
2018-09-05T08:41:38.636Z,74.50
2018-09-05T08:43:33.010Z,73.21
2018-09-05T08:44:32.880Z,75.62
2018-09-05T08:46:25.549Z,73.31
2018-09-05T08:47:25.432Z,73.88
2018-09-05T08:49:18.114Z,73.46
2018-09-05T08:50:17.947Z,76.57
2018-09-05T08:52:10.616Z,73.60
2018-09-05T08:53:10.487Z,76.23
2018-09-05T08:55:03.198Z,72.13
2018-09-05T08:56:03.125Z,71.84
2018-09-05T08:57:55.714Z,69.47
2018-09-05T08:58:55.665Z,69.09
2018-09-05T09:01:03.632Z,71.17
2018-09-05T09:02:03.472Z,70.24
2018-09-05T09:03:56.147Z,71.49
2018-09-05T09:04:56.066Z,70.24
2018-09-05T09:06:48.723Z,72.74
2018-09-05T09:07:48.569Z,73.90
2018-09-05T09:09:41.240Z,73.07
2018-09-05T09:10:41.115Z,74.03
2018-09-05T09:12:33.820Z,73.36
2018-09-05T09:13:33.664Z,71.62
2018-09-05T09:15:26.341Z,71.14
2018-09-05T09:16:26.215Z,72.01
2018-09-05T09:18:19.104Z,72.24
2018-09-05T09:19:18.761Z,71.95
2018-09-05T09:21:11.464Z,71.56
2018-09-05T09:22:11.309Z,72.33
2018-09-05T09:24:04.871Z,71.78
2018-09-05T09:25:04.712Z,74.09
2018-09-05T09:26:58.885Z,75.15
2018-09-05T09:27:59.589Z,73.51
2018-09-05T09:29:51.756Z,74.57
2018-09-05T09:30:52.062Z,73.61
2018-09-05T09:32:44.021Z,74.48
2018-09-05T09:33:43.916Z,74.86
2018-09-05T09:35:36.537Z,75.80
2018-09-05T09:36:36.411Z,71.66
2018-09-05T09:38:29.119Z,71.76
2018-09-05T09:39:28.959Z,73.10
2018-09-05T09:41:21.644Z,69.38
2018-09-05T09:42:21.550Z,68.77
2018-09-05T09:44:14.232Z,70.54
2018-09-05T09:45:14.064Z,70.64
2018-09-05T09:47:06.742Z,70.15
2018-09-05T09:48:06.620Z,71.50
2018-09-05T09:49:59.320Z,70.54
2018-09-05T09:50:59.167Z,72.02
2018-09-05T09:52:52.212Z,67.88
2018-09-05T09:53:52.091Z,66.24
2018-09-05T09:55:44.952Z,68.84
2018-09-05T09:56:45.437Z,66.91
2018-09-05T09:58:39.010Z,67.00
2018-09-05T09:59:38.886Z,64.76
2018-09-05T10:01:31.599Z,65.33
2018-09-05T10:02:31.445Z,63.70
2018-09-05T10:04:24.126Z,67.00
2018-09-05T10:05:24.003Z,64.98
2018-09-05T10:07:16.789Z,65.17
2018-09-05T10:08:16.558Z,64.69
2018-09-05T10:10:09.502Z,64.50
2018-09-05T10:11:09.117Z,64.98
2018-09-05T10:13:01.831Z,67.20
2018-09-05T10:14:01.670Z,66.82
2018-09-05T10:15:54.355Z,64.50
2018-09-05T10:16:54.236Z,62.96
2018-09-05T10:18:46.932Z,63.67
2018-09-05T10:19:46.779Z,63.76
2018-09-05T10:21:40.303Z,62.70
2018-09-05T10:22:40.228Z,63.95
2018-09-05T10:24:32.896Z,62.05
2018-09-05T10:25:32.732Z,62.82
2018-09-05T10:27:25.444Z,59.77
2018-09-05T10:28:25.287Z,60.44
2018-09-05T10:30:17.968Z,59.48
2018-09-05T10:31:17.840Z,59.77
2018-09-05T10:33:10.597Z,60.44
2018-09-05T10:34:10.403Z,62.28
2018-09-05T10:36:03.084Z,61.44
2018-09-05T10:37:02.959Z,57.54
2018-09-05T10:38:55.673Z,58.18
2018-09-05T10:39:55.523Z,58.28
2018-09-05T10:41:48.192Z,56.15
2018-09-05T10:42:48.071Z,56.25
2018-09-05T10:44:40.780Z,58.70
2018-09-05T10:45:40.627Z,55.19
2018-09-05T10:46:40.513Z,57.12
2018-09-05T10:47:40.398Z,60.11
2018-09-05T10:48:40.281Z,57.95
2018-09-05T10:49:40.169Z,56.11
2018-09-05T10:50:40.051Z,55.16
2018-09-05T10:51:39.954Z,56.87
2018-09-05T10:52:39.823Z,60.28
2018-09-05T10:53:39.708Z,58.67
2018-09-05T10:54:39.594Z,56.67
2018-09-05T10:55:39.477Z,57.24
2018-09-05T10:56:39.362Z,57.08
2018-09-05T10:57:39.250Z,57.76
2018-09-05T10:58:39.134Z,56.30
2018-09-05T10:59:39.019Z,57.95
2018-09-05T11:00:38.906Z,57.40
2018-09-05T11:01:38.791Z,56.52
2018-09-05T11:02:38.677Z,57.30
2018-09-05T11:03:38.559Z,55.34
2018-09-05T11:04:38.446Z,57.28
2018-09-05T11:05:38.330Z,57.28
2018-09-05T11:06:38.252Z,55.46
2018-09-05T11:07:38.339Z,54.59
2018-09-05T11:08:37.990Z,56.52
2018-09-05T11:09:37.875Z,56.02
2018-09-05T11:10:37.767Z,57.08
2018-09-05T11:11:37.644Z,56.92
2018-09-05T11:12:37.529Z,55.36
2018-09-05T11:13:37.415Z,55.34
2018-09-05T11:14:37.314Z,57.01
2018-09-05T11:15:37.186Z,57.79
2018-09-05T11:16:37.071Z,58.01
2018-09-05T11:17:36.959Z,57.71
2018-09-05T11:18:37.114Z,56.16
2018-09-05T11:19:36.737Z,55.36
2018-09-05T11:20:36.617Z,56.02
2018-09-05T11:21:36.505Z,56.50
2018-09-05T11:22:36.386Z,59.50
2018-09-05T11:23:36.274Z,56.40
2018-09-05T11:24:36.158Z,57.30
2018-09-05T11:25:36.046Z,56.92
2018-09-05T11:26:35.929Z,56.24
2018-09-05T11:27:35.831Z,56.30
2018-09-05T11:28:35.784Z,57.46
2018-09-05T11:29:35.786Z,58.34
2018-09-05T11:30:35.478Z,59.38
2018-09-05T11:31:35.354Z,58.31
2018-09-05T11:32:35.240Z,58.65
2018-09-05T11:33:35.125Z,57.79
2018-09-05T11:34:35.015Z,57.98
2018-09-05T11:35:34.895Z,56.49
2018-09-05T11:36:34.783Z,53.65
2018-09-05T11:37:34.671Z,54.06
2018-09-05T11:38:34.554Z,52.80
2018-09-05T11:39:34.437Z,52.87
2018-09-05T11:40:34.324Z,52.46
2018-09-05T11:41:34.212Z,52.34
2018-09-05T11:42:34.096Z,53.96
2018-09-05T11:43:33.982Z,55.16
2018-09-05T11:44:33.871Z,56.20
2018-09-05T11:45:33.753Z,59.09
2018-09-05T11:46:33.639Z,57.90
2018-09-05T11:47:33.527Z,58.17
2018-09-05T11:48:33.414Z,58.90
2018-09-05T11:49:33.296Z,60.50
2018-09-05T11:50:33.187Z,60.76
2018-09-05T11:51:33.072Z,57.74
2018-09-05T11:52:32.955Z,58.54
2018-09-05T11:53:32.836Z,59.25
2018-09-05T11:54:32.726Z,57.42
2018-09-05T11:55:32.618Z,56.58
2018-09-05T11:56:32.495Z,56.41
2018-09-05T11:57:32.380Z,59.70
2018-09-05T11:58:32.263Z,57.31
2018-09-05T11:59:32.149Z,55.67
2018-09-05T12:00:32.033Z,57.03
2018-09-05T12:01:31.920Z,57.99
2018-09-05T12:02:31.805Z,58.15
2018-09-05T12:03:31.687Z,57.29
2018-09-05T12:04:31.572Z,58.51
2018-09-05T12:05:31.456Z,57.06
2018-09-05T12:06:31.342Z,58.51
2018-09-05T12:07:31.224Z,58.45
2018-09-05T12:08:31.115Z,57.70
2018-09-05T12:09:30.997Z,55.19
2018-09-05T12:10:30.883Z,54.71
2018-09-05T12:11:30.786Z,54.68
2018-09-05T12:12:30.653Z,55.29
2018-09-05T12:13:30.535Z,55.29
2018-09-05T12:14:30.418Z,55.83
2018-09-05T12:15:30.300Z,58.22
2018-09-05T12:16:30.189Z,57.26
2018-09-05T12:17:30.069Z,56.74
2018-09-05T12:18:29.955Z,56.46
2018-09-05T12:19:29.838Z,56.96
2018-09-05T12:20:29.721Z,55.23
2018-09-05T12:21:29.604Z,54.65
2018-09-05T12:22:29.489Z,55.65
2018-09-05T12:23:29.375Z,55.47
2018-09-05T12:24:29.256Z,52.22
2018-09-05T12:25:29.142Z,50.98
2018-09-05T12:26:29.025Z,52.14
2018-09-05T12:27:29.004Z,52.08
2018-09-05T12:28:28.799Z,53.55
2018-09-05T12:29:28.675Z,54.23
2018-09-05T12:30:28.835Z,51.06
2018-09-05T12:31:28.444Z,51.16
2018-09-05T12:32:28.331Z,50.67
2018-09-05T12:33:28.213Z,51.64
2018-09-05T12:34:28.103Z,52.42
2018-09-05T12:35:27.983Z,52.49
2018-09-05T12:36:27.867Z,52.12
2018-09-05T12:37:28.958Z,50.57
2018-09-05T12:38:27.636Z,49.34
2018-09-05T12:39:27.520Z,47.89
2018-09-05T12:40:27.410Z,48.93
2018-09-05T12:41:27.288Z,47.28
2018-09-05T12:42:27.175Z,47.67
2018-09-05T12:43:27.230Z,47.67
2018-09-05T12:44:26.941Z,47.98
2018-09-05T12:45:26.845Z,48.00
2018-09-05T12:46:27.225Z,48.42
2018-09-05T12:47:26.596Z,46.38
2018-09-05T12:48:26.483Z,45.20
2018-09-05T12:49:26.367Z,47.83
2018-09-05T12:50:26.255Z,46.67
2018-09-05T12:51:26.138Z,46.58
2018-09-05T12:52:26.023Z,45.68
2018-09-05T12:53:25.908Z,46.28
2018-09-05T12:54:25.880Z,46.26
2018-09-05T12:55:25.686Z,47.16
2018-09-05T12:56:25.563Z,46.98
2018-09-05T12:57:25.461Z,44.46
2018-09-05T12:58:25.334Z,45.26
2018-09-05T12:59:25.312Z,44.58
2018-09-05T13:00:25.105Z,43.22
2018-09-05T13:01:24.996Z,42.74
2018-09-05T13:02:25.049Z,41.74
2018-09-05T13:03:24.917Z,42.52
2018-09-05T13:04:24.651Z,41.92
2018-09-05T13:05:24.895Z,42.86
2018-09-05T13:06:24.427Z,43.27
2018-09-05T13:07:24.494Z,45.72
2018-09-05T13:08:24.194Z,44.09
2018-09-05T13:09:24.082Z,43.44
2018-09-05T13:10:23.977Z,43.24
2018-09-05T13:11:23.912Z,40.97
2018-09-05T13:12:23.760Z,42.74
2018-09-05T13:13:23.665Z,41.45
2018-09-05T13:14:23.516Z,42.05
2018-09-05T13:15:23.402Z,42.83
2018-09-05T13:16:23.286Z,42.60
2018-09-05T13:17:23.172Z,41.34
2018-09-05T13:18:23.189Z,41.44
2018-09-05T13:19:23.059Z,40.17
2018-09-05T13:20:22.835Z,40.66
2018-09-05T13:21:22.724Z,41.06
2018-09-05T13:22:22.611Z,39.82
2018-09-05T13:23:22.497Z,37.97
2018-09-05T13:24:22.443Z,38.19
2018-09-05T13:25:22.273Z,39.45
2018-09-05T13:26:22.161Z,42.05
2018-09-05T13:27:22.173Z,41.47
2018-09-05T13:28:21.938Z,40.44
2018-09-05T13:29:21.876Z,41.14
2018-09-05T13:30:22.167Z,42.04
2018-09-05T13:31:21.602Z,39.98
2018-09-05T13:32:21.742Z,39.26
2018-09-05T13:33:21.378Z,39.43
2018-09-05T13:34:21.268Z,40.35
2018-09-05T13:35:21.157Z,39.18
2018-09-05T13:36:21.044Z,38.51
2018-09-05T13:37:20.932Z,38.24
2018-09-05T13:38:20.829Z,40.50
2018-09-05T13:39:20.900Z,42.99
2018-09-05T13:40:20.600Z,42.21
2018-09-05T13:41:20.490Z,40.78
2018-09-05T13:42:20.378Z,40.19
2018-09-05T13:43:20.268Z,40.39
2018-09-05T13:44:20.156Z,40.56
2018-09-05T13:45:20.047Z,40.21
2018-09-05T13:46:19.935Z,41.71
2018-09-05T13:47:19.853Z,42.60
2018-09-05T13:48:19.713Z,41.03
2018-09-05T13:49:19.602Z,40.68
2018-09-05T13:50:19.500Z,38.67
2018-09-05T13:51:19.416Z,39.20
2018-09-05T13:52:19.273Z,39.94
2018-09-05T13:53:19.163Z,40.95
2018-09-05T13:54:19.053Z,39.31
2018-09-05T13:55:19.130Z,37.41
2018-09-05T13:56:18.891Z,41.49
2018-09-05T13:57:18.763Z,42.81
2018-09-05T13:58:18.619Z,44.15
2018-09-05T13:59:18.504Z,44.34
2018-09-05T14:00:18.396Z,45.21
2018-09-05T14:01:18.281Z,44.43
2018-09-05T14:02:18.171Z,40.39
2018-09-05T14:03:18.063Z,39.53